sensor_id;sensor_type;location;lat;lon;timestamp;temperature;humidity
33863;DHT22;20158;51.436;-2.742;2023-08-06T00:00:50;17.70;58.40
33863;DHT22;20158;51.436;-2.742;2023-08-06T00:03:16;17.70;58.50
33863;DHT22;20158;51.436;-2.742;2023-08-06T00:05:42;17.60;58.40
33863;DHT22;20158;51.436;-2.742;2023-08-06T00:08:08;17.60;58.50
33863;DHT22;20158;51.436;-2.742;2023-08-06T00:10:34;17.60;58.60
33863;DHT22;20158;51.436;-2.742;2023-08-06T00:13:01;17.60;58.70
33863;DHT22;20158;51.436;-2.742;2023-08-06T00:15:27;17.50;58.60
33863;DHT22;20158;51.436;-2.742;2023-08-06T00:17:53;17.50;58.70
33863;DHT22;20158;51.436;-2.742;2023-08-06T00:20:19;17.50;58.70
33863;DHT22;20158;51.436;-2.742;2023-08-06T00:22:45;17.50;58.80
33863;DHT22;20158;51.436;-2.742;2023-08-06T00:25:11;17.40;58.80
33863;DHT22;20158;51.436;-2.742;2023-08-06T00:27:37;17.40;58.90
33863;DHT22;20158;51.436;-2.742;2023-08-06T00:30:04;17.40;59.00
33863;DHT22;20158;51.436;-2.742;2023-08-06T00:32:30;17.40;59.00
33863;DHT22;20158;51.436;-2.742;2023-08-06T00:34:56;17.40;59.20
33863;DHT22;20158;51.436;-2.742;2023-08-06T00:37:23;17.40;59.20
33863;DHT22;20158;51.436;-2.742;2023-08-06T00:39:49;17.40;59.30
33863;DHT22;20158;51.436;-2.742;2023-08-06T00:42:15;17.30;59.20
33863;DHT22;20158;51.436;-2.742;2023-08-06T00:44:46;17.40;59.40
33863;DHT22;20158;51.436;-2.742;2023-08-06T00:47:12;17.30;59.30
33863;DHT22;20158;51.436;-2.742;2023-08-06T00:49:39;17.30;59.30
33863;DHT22;20158;51.436;-2.742;2023-08-06T00:52:06;17.30;59.40
33863;DHT22;20158;51.436;-2.742;2023-08-06T00:54:36;17.30;59.50
33863;DHT22;20158;51.436;-2.742;2023-08-06T00:57:03;17.20;59.40
33863;DHT22;20158;51.436;-2.742;2023-08-06T00:59:30;17.20;59.50
33863;DHT22;20158;51.436;-2.742;2023-08-06T01:01:56;17.20;59.60
33863;DHT22;20158;51.436;-2.742;2023-08-06T01:04:23;17.10;59.50
33863;DHT22;20158;51.436;-2.742;2023-08-06T01:06:56;17.10;59.50
33863;DHT22;20158;51.436;-2.742;2023-08-06T01:12:25;17.00;59.60
33863;DHT22;20158;51.436;-2.742;2023-08-06T01:14:54;17.00;59.60
33863;DHT22;20158;51.436;-2.742;2023-08-06T01:17:23;17.00;59.70
33863;DHT22;20158;51.436;-2.742;2023-08-06T01:19:52;16.90;59.60
33863;DHT22;20158;51.436;-2.742;2023-08-06T01:22:18;16.90;59.70
33863;DHT22;20158;51.436;-2.742;2023-08-06T01:24:48;16.90;59.80
33863;DHT22;20158;51.436;-2.742;2023-08-06T01:27:37;16.90;59.80
33863;DHT22;20158;51.436;-2.742;2023-08-06T01:30:12;16.90;60.00
33863;DHT22;20158;51.436;-2.742;2023-08-06T01:32:43;16.80;59.80
33863;DHT22;20158;51.436;-2.742;2023-08-06T01:35:11;16.80;59.80
33863;DHT22;20158;51.436;-2.742;2023-08-06T01:37:38;16.80;59.90
33863;DHT22;20158;51.436;-2.742;2023-08-06T01:40:11;16.80;60.00
33863;DHT22;20158;51.436;-2.742;2023-08-06T01:42:37;16.70;59.90
33863;DHT22;20158;51.436;-2.742;2023-08-06T01:45:04;16.70;59.80
33863;DHT22;20158;51.436;-2.742;2023-08-06T01:47:31;16.70;59.70
33863;DHT22;20158;51.436;-2.742;2023-08-06T01:49:57;16.70;59.80
33863;DHT22;20158;51.436;-2.742;2023-08-06T01:52:23;16.70;60.00
33863;DHT22;20158;51.436;-2.742;2023-08-06T01:54:49;16.60;59.90
33863;DHT22;20158;51.436;-2.742;2023-08-06T01:57:15;16.60;60.00
33863;DHT22;20158;51.436;-2.742;2023-08-06T01:59:41;16.50;59.90
33863;DHT22;20158;51.436;-2.742;2023-08-06T02:02:07;16.50;60.00
33863;DHT22;20158;51.436;-2.742;2023-08-06T02:04:33;16.40;60.00
33863;DHT22;20158;51.436;-2.742;2023-08-06T02:06:59;16.40;60.10
33863;DHT22;20158;51.436;-2.742;2023-08-06T02:09:25;16.40;60.30
33863;DHT22;20158;51.436;-2.742;2023-08-06T02:11:51;16.30;60.70
33863;DHT22;20158;51.436;-2.742;2023-08-06T02:14:18;16.30;60.30
33863;DHT22;20158;51.436;-2.742;2023-08-06T02:16:43;16.20;60.20
33863;DHT22;20158;51.436;-2.742;2023-08-06T02:19:09;16.20;60.30
33863;DHT22;20158;51.436;-2.742;2023-08-06T02:21:35;16.10;60.20
33863;DHT22;20158;51.436;-2.742;2023-08-06T02:24:02;16.10;60.30
33863;DHT22;20158;51.436;-2.742;2023-08-06T02:26:29;16.10;60.40
33863;DHT22;20158;51.436;-2.742;2023-08-06T02:28:55;16.00;60.30
33863;DHT22;20158;51.436;-2.742;2023-08-06T02:31:21;16.00;60.40
33863;DHT22;20158;51.436;-2.742;2023-08-06T02:33:47;16.00;60.50
33863;DHT22;20158;51.436;-2.742;2023-08-06T02:36:13;16.00;60.50
33863;DHT22;20158;51.436;-2.742;2023-08-06T02:38:39;15.90;60.50
33863;DHT22;20158;51.436;-2.742;2023-08-06T02:41:06;15.90;60.50
33863;DHT22;20158;51.436;-2.742;2023-08-06T02:43:33;15.90;60.60
33863;DHT22;20158;51.436;-2.742;2023-08-06T02:46:00;15.90;60.60
33863;DHT22;20158;51.436;-2.742;2023-08-06T02:48:27;15.80;60.60
33863;DHT22;20158;51.436;-2.742;2023-08-06T02:50:57;15.80;60.60
33863;DHT22;20158;51.436;-2.742;2023-08-06T02:53:25;15.70;60.50
33863;DHT22;20158;51.436;-2.742;2023-08-06T02:55:53;15.70;60.50
33863;DHT22;20158;51.436;-2.742;2023-08-06T02:58:25;15.70;60.60
33863;DHT22;20158;51.436;-2.742;2023-08-06T03:01:10;15.70;60.70
33863;DHT22;20158;51.436;-2.742;2023-08-06T03:03:47;15.60;60.60
33863;DHT22;20158;51.436;-2.742;2023-08-06T03:06:20;15.50;60.50
33863;DHT22;20158;51.436;-2.742;2023-08-06T03:08:50;15.50;60.60
33863;DHT22;20158;51.436;-2.742;2023-08-06T03:11:16;15.50;60.70
33863;DHT22;20158;51.436;-2.742;2023-08-06T03:13:43;15.40;60.60
33863;DHT22;20158;51.436;-2.742;2023-08-06T03:16:10;15.40;60.70
33863;DHT22;20158;51.436;-2.742;2023-08-06T03:18:37;15.40;60.80
33863;DHT22;20158;51.436;-2.742;2023-08-06T03:21:05;15.30;60.70
33863;DHT22;20158;51.436;-2.742;2023-08-06T03:23:31;15.30;60.80
33863;DHT22;20158;51.436;-2.742;2023-08-06T03:26:02;15.20;60.70
33863;DHT22;20158;51.436;-2.742;2023-08-06T03:28:29;15.20;60.80
33863;DHT22;20158;51.436;-2.742;2023-08-06T03:31:00;15.20;60.80
33863;DHT22;20158;51.436;-2.742;2023-08-06T03:33:29;15.20;60.90
33863;DHT22;20158;51.436;-2.742;2023-08-06T03:35:58;15.10;60.70
33863;DHT22;20158;51.436;-2.742;2023-08-06T03:38:24;15.20;61.00
33863;DHT22;20158;51.436;-2.742;2023-08-06T03:40:51;15.10;60.90
33863;DHT22;20158;51.436;-2.742;2023-08-06T03:43:17;15.10;61.00
33863;DHT22;20158;51.436;-2.742;2023-08-06T03:45:43;15.00;60.80
33863;DHT22;20158;51.436;-2.742;2023-08-06T03:48:10;15.00;60.80
33863;DHT22;20158;51.436;-2.742;2023-08-06T03:50:36;15.00;60.90
33863;DHT22;20158;51.436;-2.742;2023-08-06T03:53:02;15.00;61.00
33863;DHT22;20158;51.436;-2.742;2023-08-06T03:55:28;15.00;61.00
33863;DHT22;20158;51.436;-2.742;2023-08-06T03:57:54;15.00;61.10
33863;DHT22;20158;51.436;-2.742;2023-08-06T04:00:21;15.00;61.60
33863;DHT22;20158;51.436;-2.742;2023-08-06T04:02:51;14.90;61.00
33863;DHT22;20158;51.436;-2.742;2023-08-06T04:05:17;14.90;61.10
33863;DHT22;20158;51.436;-2.742;2023-08-06T04:07:43;14.80;61.00
33863;DHT22;20158;51.436;-2.742;2023-08-06T04:10:09;14.80;61.00
33863;DHT22;20158;51.436;-2.742;2023-08-06T04:12:35;14.80;61.10
33863;DHT22;20158;51.436;-2.742;2023-08-06T04:15:04;14.70;61.00
33863;DHT22;20158;51.436;-2.742;2023-08-06T04:17:30;14.70;61.10
33863;DHT22;20158;51.436;-2.742;2023-08-06T04:19:56;14.70;61.20
33863;DHT22;20158;51.436;-2.742;2023-08-06T04:22:24;14.70;61.20
33863;DHT22;20158;51.436;-2.742;2023-08-06T04:24:50;14.60;61.10
33863;DHT22;20158;51.436;-2.742;2023-08-06T04:27:18;14.60;61.20
33863;DHT22;20158;51.436;-2.742;2023-08-06T04:29:45;14.60;61.20
33863;DHT22;20158;51.436;-2.742;2023-08-06T04:32:12;14.50;61.10
33863;DHT22;20158;51.436;-2.742;2023-08-06T04:34:42;14.50;61.20
33863;DHT22;20158;51.436;-2.742;2023-08-06T04:37:09;14.50;61.20
33863;DHT22;20158;51.436;-2.742;2023-08-06T04:39:36;14.50;61.20
33863;DHT22;20158;51.436;-2.742;2023-08-06T04:42:02;14.50;61.30
33863;DHT22;20158;51.436;-2.742;2023-08-06T04:44:28;14.50;61.30
33863;DHT22;20158;51.436;-2.742;2023-08-06T04:46:54;14.50;61.30
33863;DHT22;20158;51.436;-2.742;2023-08-06T04:49:21;14.50;61.30
33863;DHT22;20158;51.436;-2.742;2023-08-06T04:51:47;14.50;61.40
33863;DHT22;20158;51.436;-2.742;2023-08-06T04:54:12;14.50;61.40
33863;DHT22;20158;51.436;-2.742;2023-08-06T04:56:38;14.50;61.40
33863;DHT22;20158;51.436;-2.742;2023-08-06T04:59:04;14.50;61.40
33863;DHT22;20158;51.436;-2.742;2023-08-06T05:01:31;14.60;61.60
33863;DHT22;20158;51.436;-2.742;2023-08-06T05:03:57;14.60;61.60
33863;DHT22;20158;51.436;-2.742;2023-08-06T05:06:23;14.50;61.40
33863;DHT22;20158;51.436;-2.742;2023-08-06T05:08:49;14.60;61.60
33863;DHT22;20158;51.436;-2.742;2023-08-06T05:11:15;14.50;61.40
33863;DHT22;20158;51.436;-2.742;2023-08-06T05:13:41;14.60;61.70
33863;DHT22;20158;51.436;-2.742;2023-08-06T05:16:07;14.60;62.20
33863;DHT22;20158;51.436;-2.742;2023-08-06T05:18:33;14.60;61.70
33863;DHT22;20158;51.436;-2.742;2023-08-06T05:21:00;14.60;61.70
33863;DHT22;20158;51.436;-2.742;2023-08-06T05:23:26;14.60;62.30
33863;DHT22;20158;51.436;-2.742;2023-08-06T05:25:52;14.60;61.60
33863;DHT22;20158;51.436;-2.742;2023-08-06T05:28:18;14.80;61.90
33863;DHT22;20158;51.436;-2.742;2023-08-06T05:30:44;14.80;61.90
33863;DHT22;20158;51.436;-2.742;2023-08-06T05:33:10;14.90;62.40
33863;DHT22;20158;51.436;-2.742;2023-08-06T05:35:35;15.00;62.90
33863;DHT22;20158;51.436;-2.742;2023-08-06T05:38:01;15.10;63.30
33863;DHT22;20158;51.436;-2.742;2023-08-06T05:40:27;15.20;63.50
33863;DHT22;20158;51.436;-2.742;2023-08-06T05:42:54;15.40;64.00
33863;DHT22;20158;51.436;-2.742;2023-08-06T05:45:20;15.40;64.20
33863;DHT22;20158;51.436;-2.742;2023-08-06T05:47:48;15.50;64.40
33863;DHT22;20158;51.436;-2.742;2023-08-06T05:50:14;15.70;64.80
33863;DHT22;20158;51.436;-2.742;2023-08-06T05:52:40;15.70;64.70
33863;DHT22;20158;51.436;-2.742;2023-08-06T05:55:06;15.80;64.80
33863;DHT22;20158;51.436;-2.742;2023-08-06T05:57:32;15.90;64.90
33863;DHT22;20158;51.436;-2.742;2023-08-06T05:59:58;16.10;65.10
33863;DHT22;20158;51.436;-2.742;2023-08-06T06:02:24;16.10;65.00
33863;DHT22;20158;51.436;-2.742;2023-08-06T06:04:50;16.20;65.00
33863;DHT22;20158;51.436;-2.742;2023-08-06T06:07:16;16.30;65.10
33863;DHT22;20158;51.436;-2.742;2023-08-06T06:09:44;16.40;65.00
33863;DHT22;20158;51.436;-2.742;2023-08-06T06:12:10;16.40;64.60
33863;DHT22;20158;51.436;-2.742;2023-08-06T06:14:35;16.40;64.40
33863;DHT22;20158;51.436;-2.742;2023-08-06T06:17:01;16.40;64.30
33863;DHT22;20158;51.436;-2.742;2023-08-06T06:19:27;16.40;64.30
33863;DHT22;20158;51.436;-2.742;2023-08-06T06:21:53;16.40;64.30
33863;DHT22;20158;51.436;-2.742;2023-08-06T06:24:19;16.40;64.30
33863;DHT22;20158;51.436;-2.742;2023-08-06T06:26:45;16.40;64.30
33863;DHT22;20158;51.436;-2.742;2023-08-06T06:29:11;16.50;64.50
33863;DHT22;20158;51.436;-2.742;2023-08-06T06:31:37;16.60;64.70
33863;DHT22;20158;51.436;-2.742;2023-08-06T06:34:03;16.60;64.50
33863;DHT22;20158;51.436;-2.742;2023-08-06T06:36:29;16.70;64.50
33863;DHT22;20158;51.436;-2.742;2023-08-06T06:38:55;16.70;64.40
33863;DHT22;20158;51.436;-2.742;2023-08-06T06:41:21;16.70;64.40
33863;DHT22;20158;51.436;-2.742;2023-08-06T06:43:47;16.70;64.50
33863;DHT22;20158;51.436;-2.742;2023-08-06T06:46:13;16.80;64.70
33863;DHT22;20158;51.436;-2.742;2023-08-06T06:48:39;16.90;64.90
33863;DHT22;20158;51.436;-2.742;2023-08-06T06:51:05;16.90;64.90
33863;DHT22;20158;51.436;-2.742;2023-08-06T06:53:31;17.00;65.00
33863;DHT22;20158;51.436;-2.742;2023-08-06T06:56:02;17.10;65.00
33863;DHT22;20158;51.436;-2.742;2023-08-06T06:58:28;17.20;65.10
33863;DHT22;20158;51.436;-2.742;2023-08-06T07:00:54;17.30;65.00
33863;DHT22;20158;51.436;-2.742;2023-08-06T07:03:20;17.40;65.00
33863;DHT22;20158;51.436;-2.742;2023-08-06T07:05:46;17.50;65.00
33863;DHT22;20158;51.436;-2.742;2023-08-06T07:08:12;17.60;65.00
33863;DHT22;20158;51.436;-2.742;2023-08-06T07:10:40;17.70;64.90
33863;DHT22;20158;51.436;-2.742;2023-08-06T07:13:06;17.80;64.80
33863;DHT22;20158;51.436;-2.742;2023-08-06T07:15:32;17.90;64.80
33863;DHT22;20158;51.436;-2.742;2023-08-06T07:17:58;18.00;64.70
33863;DHT22;20158;51.436;-2.742;2023-08-06T07:20:24;18.10;64.60
33863;DHT22;20158;51.436;-2.742;2023-08-06T07:22:50;18.30;64.80
33863;DHT22;20158;51.436;-2.742;2023-08-06T07:25:16;18.50;64.80
33863;DHT22;20158;51.436;-2.742;2023-08-06T07:27:43;18.80;64.80
33863;DHT22;20158;51.436;-2.742;2023-08-06T07:30:09;19.30;64.60
33863;DHT22;20158;51.436;-2.742;2023-08-06T07:32:38;19.90;63.80
33863;DHT22;20158;51.436;-2.742;2023-08-06T07:35:04;20.30;63.10
33863;DHT22;20158;51.436;-2.742;2023-08-06T07:37:31;20.70;62.80
33863;DHT22;20158;51.436;-2.742;2023-08-06T07:39:57;21.00;62.70
33863;DHT22;20158;51.436;-2.742;2023-08-06T07:42:23;21.30;62.20
33863;DHT22;20158;51.436;-2.742;2023-08-06T07:44:56;21.40;61.60
33863;DHT22;20158;51.436;-2.742;2023-08-06T07:47:22;21.40;61.40
33863;DHT22;20158;51.436;-2.742;2023-08-06T07:49:48;21.30;61.30
33863;DHT22;20158;51.436;-2.742;2023-08-06T07:52:14;21.10;60.90
33863;DHT22;20158;51.436;-2.742;2023-08-06T07:54:40;21.00;60.90
33863;DHT22;20158;51.436;-2.742;2023-08-06T07:57:07;21.00;60.90
33863;DHT22;20158;51.436;-2.742;2023-08-06T07:59:33;20.90;60.80
33863;DHT22;20158;51.436;-2.742;2023-08-06T08:02:00;21.00;60.90
33863;DHT22;20158;51.436;-2.742;2023-08-06T08:04:27;21.20;60.80
33863;DHT22;20158;51.436;-2.742;2023-08-06T08:06:53;21.40;60.40
33863;DHT22;20158;51.436;-2.742;2023-08-06T08:09:19;21.60;60.10
33863;DHT22;20158;51.436;-2.742;2023-08-06T08:11:46;21.70;59.60
33863;DHT22;20158;51.436;-2.742;2023-08-06T08:14:12;21.90;59.40
33863;DHT22;20158;51.436;-2.742;2023-08-06T08:16:38;22.20;59.20
33863;DHT22;20158;51.436;-2.742;2023-08-06T08:19:04;22.30;58.70
33863;DHT22;20158;51.436;-2.742;2023-08-06T08:21:31;22.40;58.40
33863;DHT22;20158;51.436;-2.742;2023-08-06T08:23:59;22.40;58.00
33863;DHT22;20158;51.436;-2.742;2023-08-06T08:26:25;22.40;57.60
33863;DHT22;20158;51.436;-2.742;2023-08-06T08:28:53;22.30;57.40
33863;DHT22;20158;51.436;-2.742;2023-08-06T08:31:19;22.20;57.40
33863;DHT22;20158;51.436;-2.742;2023-08-06T08:33:46;22.10;57.50
33863;DHT22;20158;51.436;-2.742;2023-08-06T08:36:12;21.90;57.40
33863;DHT22;20158;51.436;-2.742;2023-08-06T08:38:38;21.80;57.50
33863;DHT22;20158;51.436;-2.742;2023-08-06T08:41:04;21.70;57.40
33863;DHT22;20158;51.436;-2.742;2023-08-06T08:43:30;21.50;57.30
33863;DHT22;20158;51.436;-2.742;2023-08-06T08:45:57;21.40;57.40
33863;DHT22;20158;51.436;-2.742;2023-08-06T08:48:26;21.20;57.40
33863;DHT22;20158;51.436;-2.742;2023-08-06T08:50:55;21.20;57.80
33863;DHT22;20158;51.436;-2.742;2023-08-06T08:53:22;21.00;57.70
33863;DHT22;20158;51.436;-2.742;2023-08-06T08:55:49;21.00;57.90
33863;DHT22;20158;51.436;-2.742;2023-08-06T08:58:16;21.00;58.00
33863;DHT22;20158;51.436;-2.742;2023-08-06T09:00:43;21.00;58.30
33863;DHT22;20158;51.436;-2.742;2023-08-06T09:03:14;21.10;58.30
33863;DHT22;20158;51.436;-2.742;2023-08-06T09:05:44;21.20;58.20
33863;DHT22;20158;51.436;-2.742;2023-08-06T09:08:12;21.30;58.40
33863;DHT22;20158;51.436;-2.742;2023-08-06T09:10:41;21.30;58.30
33863;DHT22;20158;51.436;-2.742;2023-08-06T09:13:11;21.30;58.30
33863;DHT22;20158;51.436;-2.742;2023-08-06T09:15:38;21.30;58.30
33863;DHT22;20158;51.436;-2.742;2023-08-06T09:18:11;21.30;58.30
33863;DHT22;20158;51.436;-2.742;2023-08-06T09:20:40;21.30;58.20
33863;DHT22;20158;51.436;-2.742;2023-08-06T09:23:08;21.40;58.50
33863;DHT22;20158;51.436;-2.742;2023-08-06T09:25:38;21.60;58.90
33863;DHT22;20158;51.436;-2.742;2023-08-06T09:28:08;21.70;58.90
33863;DHT22;20158;51.436;-2.742;2023-08-06T09:30:36;21.90;59.00
33863;DHT22;20158;51.436;-2.742;2023-08-06T09:33:09;22.10;59.00
33863;DHT22;20158;51.436;-2.742;2023-08-06T09:35:41;22.40;59.20
33863;DHT22;20158;51.436;-2.742;2023-08-06T09:38:09;22.70;59.20
33863;DHT22;20158;51.436;-2.742;2023-08-06T09:40:36;23.20;59.40
33863;DHT22;20158;51.436;-2.742;2023-08-06T09:43:03;23.50;59.10
33863;DHT22;20158;51.436;-2.742;2023-08-06T09:45:33;23.80;58.80
33863;DHT22;20158;51.436;-2.742;2023-08-06T09:48:07;24.00;58.80
33863;DHT22;20158;51.436;-2.742;2023-08-06T09:50:36;24.30;59.00
33863;DHT22;20158;51.436;-2.742;2023-08-06T09:53:06;24.50;58.90
33863;DHT22;20158;51.436;-2.742;2023-08-06T09:55:37;24.80;59.00
33863;DHT22;20158;51.436;-2.742;2023-08-06T09:58:04;24.90;59.50
33863;DHT22;20158;51.436;-2.742;2023-08-06T10:00:33;25.10;59.00
33863;DHT22;20158;51.436;-2.742;2023-08-06T10:03:00;25.20;58.50
33863;DHT22;20158;51.436;-2.742;2023-08-06T10:05:31;25.40;58.70
33863;DHT22;20158;51.436;-2.742;2023-08-06T10:07:59;25.50;57.30
33863;DHT22;20158;51.436;-2.742;2023-08-06T10:10:28;25.50;56.50
33863;DHT22;20158;51.436;-2.742;2023-08-06T10:12:56;25.50;55.80
33863;DHT22;20158;51.436;-2.742;2023-08-06T10:15:26;25.30;55.10
33863;DHT22;20158;51.436;-2.742;2023-08-06T10:17:56;25.10;54.90
33863;DHT22;20158;51.436;-2.742;2023-08-06T10:20:27;25.00;54.90
33863;DHT22;20158;51.436;-2.742;2023-08-06T10:23:02;25.00;55.30
33863;DHT22;20158;51.436;-2.742;2023-08-06T10:25:33;25.00;55.40
33863;DHT22;20158;51.436;-2.742;2023-08-06T10:28:12;25.10;55.60
33863;DHT22;20158;51.436;-2.742;2023-08-06T10:30:47;25.30;55.60
33863;DHT22;20158;51.436;-2.742;2023-08-06T10:33:14;25.50;55.30
33863;DHT22;20158;51.436;-2.742;2023-08-06T10:35:44;25.60;55.20
33863;DHT22;20158;51.436;-2.742;2023-08-06T10:38:12;25.60;55.10
33863;DHT22;20158;51.436;-2.742;2023-08-06T10:43:36;25.60;55.10
33863;DHT22;20158;51.436;-2.742;2023-08-06T10:46:11;25.60;55.20
33863;DHT22;20158;51.436;-2.742;2023-08-06T10:48:41;25.60;55.20
33863;DHT22;20158;51.436;-2.742;2023-08-06T10:51:09;25.70;55.10
33863;DHT22;20158;51.436;-2.742;2023-08-06T10:53:37;25.80;55.10
33863;DHT22;20158;51.436;-2.742;2023-08-06T10:56:17;25.70;55.10
33863;DHT22;20158;51.436;-2.742;2023-08-06T10:58:45;25.70;54.90
33863;DHT22;20158;51.436;-2.742;2023-08-06T11:01:13;25.80;55.00
33863;DHT22;20158;51.436;-2.742;2023-08-06T11:03:41;25.80;54.90
33863;DHT22;20158;51.436;-2.742;2023-08-06T11:06:09;25.90;54.70
33863;DHT22;20158;51.436;-2.742;2023-08-06T11:08:47;26.00;54.70
33863;DHT22;20158;51.436;-2.742;2023-08-06T11:11:17;26.00;54.70
33863;DHT22;20158;51.436;-2.742;2023-08-06T11:13:46;26.00;54.80
33863;DHT22;20158;51.436;-2.742;2023-08-06T11:16:17;26.00;54.80
33863;DHT22;20158;51.436;-2.742;2023-08-06T11:18:45;25.90;54.60
33863;DHT22;20158;51.436;-2.742;2023-08-06T11:21:11;25.80;54.50
33863;DHT22;20158;51.436;-2.742;2023-08-06T11:23:38;25.80;55.40
33863;DHT22;20158;51.436;-2.742;2023-08-06T11:26:05;25.70;54.90
33863;DHT22;20158;51.436;-2.742;2023-08-06T11:28:31;25.70;55.00
33863;DHT22;20158;51.436;-2.742;2023-08-06T11:30:58;25.80;55.20
33863;DHT22;20158;51.436;-2.742;2023-08-06T11:33:28;25.90;55.00
33863;DHT22;20158;51.436;-2.742;2023-08-06T11:35:55;26.10;54.80
33863;DHT22;20158;51.436;-2.742;2023-08-06T11:38:25;26.20;54.70
33863;DHT22;20158;51.436;-2.742;2023-08-06T11:40:52;26.20;54.60
33863;DHT22;20158;51.436;-2.742;2023-08-06T11:43:19;26.30;54.70
33863;DHT22;20158;51.436;-2.742;2023-08-06T11:45:51;26.20;54.60
33863;DHT22;20158;51.436;-2.742;2023-08-06T11:48:20;26.10;54.50
33863;DHT22;20158;51.436;-2.742;2023-08-06T11:50:47;25.90;54.50
33863;DHT22;20158;51.436;-2.742;2023-08-06T11:53:14;25.80;54.50
33863;DHT22;20158;51.436;-2.742;2023-08-06T11:55:41;25.60;54.60
33863;DHT22;20158;51.436;-2.742;2023-08-06T11:58:07;25.50;54.60
33863;DHT22;20158;51.436;-2.742;2023-08-06T12:00:34;25.30;54.30
33863;DHT22;20158;51.436;-2.742;2023-08-06T12:03:00;25.10;54.60
33863;DHT22;20158;51.436;-2.742;2023-08-06T12:05:31;25.10;55.10
33863;DHT22;20158;51.436;-2.742;2023-08-06T12:08:06;25.20;55.20
33863;DHT22;20158;51.436;-2.742;2023-08-06T12:10:35;25.40;54.90
33863;DHT22;20158;51.436;-2.742;2023-08-06T12:13:08;25.60;54.60
33863;DHT22;20158;51.436;-2.742;2023-08-06T12:15:42;25.80;54.30
33863;DHT22;20158;51.436;-2.742;2023-08-06T12:18:09;25.90;54.20
33863;DHT22;20158;51.436;-2.742;2023-08-06T12:20:37;25.90;54.20
33863;DHT22;20158;51.436;-2.742;2023-08-06T12:23:12;25.80;54.00
33863;DHT22;20158;51.436;-2.742;2023-08-06T12:25:42;25.80;54.00
33863;DHT22;20158;51.436;-2.742;2023-08-06T12:28:16;25.70;54.60
33863;DHT22;20158;51.436;-2.742;2023-08-06T12:30:43;25.70;53.80
33863;DHT22;20158;51.436;-2.742;2023-08-06T12:33:15;25.90;53.80
33863;DHT22;20158;51.436;-2.742;2023-08-06T12:35:41;26.00;53.50
33863;DHT22;20158;51.436;-2.742;2023-08-06T12:38:07;26.10;53.20
33863;DHT22;20158;51.436;-2.742;2023-08-06T12:40:33;26.20;53.00
33863;DHT22;20158;51.436;-2.742;2023-08-06T12:42:59;26.10;53.00
33863;DHT22;20158;51.436;-2.742;2023-08-06T12:45:25;26.10;52.90
33863;DHT22;20158;51.436;-2.742;2023-08-06T12:47:52;25.90;52.60
33863;DHT22;20158;51.436;-2.742;2023-08-06T12:50:18;25.60;52.30
33863;DHT22;20158;51.436;-2.742;2023-08-06T12:52:44;25.40;52.10
33863;DHT22;20158;51.436;-2.742;2023-08-06T12:55:10;25.20;52.10
33863;DHT22;20158;51.436;-2.742;2023-08-06T12:57:37;24.90;52.20
33863;DHT22;20158;51.436;-2.742;2023-08-06T13:00:04;24.80;52.50
33863;DHT22;20158;51.436;-2.742;2023-08-06T13:02:31;24.70;52.60
33863;DHT22;20158;51.436;-2.742;2023-08-06T13:04:57;24.60;52.60
33863;DHT22;20158;51.436;-2.742;2023-08-06T13:07:23;24.50;52.70
33863;DHT22;20158;51.436;-2.742;2023-08-06T13:09:51;24.50;52.90
33863;DHT22;20158;51.436;-2.742;2023-08-06T13:12:17;24.50;53.10
33863;DHT22;20158;51.436;-2.742;2023-08-06T13:14:44;24.50;53.10
33863;DHT22;20158;51.436;-2.742;2023-08-06T13:17:10;24.70;53.30
33863;DHT22;20158;51.436;-2.742;2023-08-06T13:19:37;24.80;53.30
33863;DHT22;20158;51.436;-2.742;2023-08-06T13:22:03;25.20;53.20
33863;DHT22;20158;51.436;-2.742;2023-08-06T13:24:31;25.70;52.60
33863;DHT22;20158;51.436;-2.742;2023-08-06T13:26:57;26.20;51.90
33863;DHT22;20158;51.436;-2.742;2023-08-06T13:29:25;26.50;51.30
33863;DHT22;20158;51.436;-2.742;2023-08-06T13:31:51;26.60;50.90
33863;DHT22;20158;51.436;-2.742;2023-08-06T13:34:17;26.60;50.80
33863;DHT22;20158;51.436;-2.742;2023-08-06T13:36:43;26.50;50.80
33863;DHT22;20158;51.436;-2.742;2023-08-06T13:39:10;26.40;50.80
33863;DHT22;20158;51.436;-2.742;2023-08-06T13:41:38;26.30;51.00
33863;DHT22;20158;51.436;-2.742;2023-08-06T13:44:05;26.10;51.10
33863;DHT22;20158;51.436;-2.742;2023-08-06T13:46:31;25.90;51.40
33863;DHT22;20158;51.436;-2.742;2023-08-06T13:48:57;25.80;51.80
33863;DHT22;20158;51.436;-2.742;2023-08-06T13:51:23;25.60;52.00
33863;DHT22;20158;51.436;-2.742;2023-08-06T13:53:49;25.60;52.20
33863;DHT22;20158;51.436;-2.742;2023-08-06T13:56:18;25.50;52.20
33863;DHT22;20158;51.436;-2.742;2023-08-06T13:58:45;25.50;52.20
33863;DHT22;20158;51.436;-2.742;2023-08-06T14:01:11;25.50;52.10
33863;DHT22;20158;51.436;-2.742;2023-08-06T14:03:37;25.50;52.10
33863;DHT22;20158;51.436;-2.742;2023-08-06T14:06:03;25.50;52.20
33863;DHT22;20158;51.436;-2.742;2023-08-06T14:08:29;25.50;52.30
33863;DHT22;20158;51.436;-2.742;2023-08-06T14:10:55;25.60;52.30
33863;DHT22;20158;51.436;-2.742;2023-08-06T14:13:22;25.70;52.20
33863;DHT22;20158;51.436;-2.742;2023-08-06T14:15:48;25.90;52.20
33863;DHT22;20158;51.436;-2.742;2023-08-06T14:18:15;26.10;51.90
33863;DHT22;20158;51.436;-2.742;2023-08-06T14:20:44;26.30;51.70
33863;DHT22;20158;51.436;-2.742;2023-08-06T14:23:10;26.40;51.50
33863;DHT22;20158;51.436;-2.742;2023-08-06T14:25:38;26.40;51.70
33863;DHT22;20158;51.436;-2.742;2023-08-06T14:28:04;26.40;52.00
33863;DHT22;20158;51.436;-2.742;2023-08-06T14:30:33;26.30;52.10
33863;DHT22;20158;51.436;-2.742;2023-08-06T14:33:00;26.30;52.20
33863;DHT22;20158;51.436;-2.742;2023-08-06T14:35:27;26.30;52.30
33863;DHT22;20158;51.436;-2.742;2023-08-06T14:37:53;26.50;52.30
33863;DHT22;20158;51.436;-2.742;2023-08-06T14:40:20;26.80;52.00
33863;DHT22;20158;51.436;-2.742;2023-08-06T14:42:46;27.30;51.70
33863;DHT22;20158;51.436;-2.742;2023-08-06T14:45:13;27.60;51.40
33863;DHT22;20158;51.436;-2.742;2023-08-06T14:47:39;27.80;51.30
33863;DHT22;20158;51.436;-2.742;2023-08-06T14:50:05;27.90;51.60
33863;DHT22;20158;51.436;-2.742;2023-08-06T14:52:31;27.90;51.50
33863;DHT22;20158;51.436;-2.742;2023-08-06T14:55:00;28.00;51.60
33863;DHT22;20158;51.436;-2.742;2023-08-06T14:57:28;28.00;51.40
33863;DHT22;20158;51.436;-2.742;2023-08-06T14:59:55;28.00;51.30
33863;DHT22;20158;51.436;-2.742;2023-08-06T15:02:22;28.00;51.50
33863;DHT22;20158;51.436;-2.742;2023-08-06T15:04:48;27.90;51.70
33863;DHT22;20158;51.436;-2.742;2023-08-06T15:07:16;28.00;51.70
33863;DHT22;20158;51.436;-2.742;2023-08-06T15:09:42;28.20;51.60
33863;DHT22;20158;51.436;-2.742;2023-08-06T15:12:09;28.20;51.40
33863;DHT22;20158;51.436;-2.742;2023-08-06T15:14:35;28.30;51.40
33863;DHT22;20158;51.436;-2.742;2023-08-06T15:17:01;28.50;51.40
33863;DHT22;20158;51.436;-2.742;2023-08-06T15:19:28;28.60;51.10
33863;DHT22;20158;51.436;-2.742;2023-08-06T15:21:54;28.70;51.00